• Join FlightAware (Why Join?)
  • Login
  • US Flag 
03:56AM EDT


 

Airport Tracker/Info


-or-


 

Live Flight TrackerFlight Track Log ✈ FLG3429 ✈ 29-Jul-2013 ✈ KJFK - KJAX

Flight Track Log - Related Links

Times and Time Zones

All times are in EDT time to prevent confusion due to time zone crossing. See the FLG3429 flight status page for this flight to view local times or setup timezone preferences in your user account.

Time Position Orientation Groundspeed Altitude Reporting Facility
EDT Latitude Longitude Course Direction KTS MPH feet Rate Location/Type
07:50PM 40.6333 -73.8667 229° Southwest 176 203 2,300  Level New York TRACON
07:51PM 40.5833 -73.9167 217° Southwest 222 255 4,300 2,280 Climbing New York TRACON
07:52PM 40.5333 -73.9667 217° Southwest 263 303 6,900 2,400 Climbing New York TRACON
07:53PM 40.3583 -74.2140 232° Southwest  Level FlightAware Approximate
07:54PM 40.2877 -74.3318 232° Southwest  Level FlightAware Approximate
07:54PM 40.4411 -74.0517 215° Southwest 275 316 10,500  Level New York Center
07:55PM 40.2193 -74.4460 229° Southwest  Level FlightAware Approximate
07:55PM 40.3950 -74.1367 235° Southwest 320 368 12,300  Level New York Center
07:56PM 40.3397 -74.2428 236° Southwest 325 374 14,500 2,100 Climbing New York Center
07:57PM 40.2933 -74.3331 236° Southwest 339 390 16,600 1,260 Climbing New York Center
07:58PM 40.2447 -74.4203 234° Southwest 336 387 17,000 180 Climbing New York Center
07:59PM 40.2019 -74.5239 242° Southwest 331 381 17,000 300 Level New York Center
08:00PM 40.1917 -74.6431 264° West 324 373 17,700 1,260 Climbing New York Center
08:01PM 40.1789 -74.7808 263° West 344 396 19,600 1,140 Climbing New York Center
08:02PM 40.1814 -74.8897 272° West 354 407 20,000 240 Climbing New York Center
08:03PM 40.2083 -75.0053 287° West 335 386 20,100 480 Climbing New York Center
08:04PM 40.2356 -75.1186 287° West 335 386 21,000 840 Climbing New York Center
08:05PM 40.2042 -75.2333 250° West 335 386 21,800 1,020 Climbing New York Center
08:06PM 40.1456 -75.3492 237° Southwest 343 395 23,100 1,260 Climbing New York Center
08:07PM 40.0789 -75.4558 231° Southwest 355 409 24,400 1,140 Climbing New York Center
08:08PM 40.0017 -75.5619 226° Southwest 390 449 25,400 960 Climbing New York Center
08:09PM 39.9242 -75.6675 226° Southwest 402 463 26,400 960 Climbing New York Center
08:10PM 39.8525 -75.7897 233° Southwest 415 478 27,400 1,020 Climbing New York Center
08:12PM 39.6942 -76.0283 229° Southwest 428 493 29,400 1,020 Climbing Washington Center
08:13PM 39.6186 -76.1519 232° Southwest 433 498 30,400 960 Climbing Washington Center
08:14PM 39.5408 -76.2750 231° Southwest 438 504 31,400 960 Climbing Washington Center
08:15PM 39.4608 -76.3953 229° Southwest 443 510 32,400 1,080 Climbing Washington Center
08:16PM 39.3747 -76.5069 225° Southwest 443 510 33,600 780 Climbing Washington Center
08:17PM 39.2842 -76.6053 220° Southwest 436 502 34,000 180 Climbing Washington Center
08:18PM 39.1939 -76.7031 220° Southwest 436 502 34,000  Level Washington Center
08:19PM 39.1033 -76.8033 221° Southwest 431 496 34,000  Level Washington Center
08:20PM 39.0167 -76.8981 220° Southwest 431 496 34,000  Level Washington Center
08:21PM 38.9367 -76.9847 220° Southwest 426 490 34,000  Level Washington Center
08:22PM 38.8478 -77.0817 220° Southwest 426 490 34,000  Level Washington Center
08:23PM 38.7569 -77.1808 220° Southwest 426 490 34,000  Level Washington Center
08:24PM 38.6681 -77.2747 220° Southwest 426 490 34,000  Level Washington Center
08:25PM 38.5769 -77.3736 220° Southwest 426 490 34,000  Level Washington Center
08:26PM 38.4900 -77.4697 221° Southwest 426 490 34,000  Level Washington Center
08:27PM 38.3989 -77.5656 220° Southwest 426 490 34,000  Level Washington Center
08:28PM 38.3097 -77.6608 220° Southwest 431 496 34,000  Level Washington Center
08:29PM 38.2206 -77.7589 221° Southwest 431 496 34,000  Level Washington Center
08:30PM 38.1289 -77.8567 220° Southwest 431 496 34,000  Level Washington Center
08:31PM 38.0375 -77.9542 220° Southwest 436 502 34,000  Level Washington Center
08:32PM 37.9372 -78.0589 219° Southwest 436 502 34,000  Level Washington Center
08:33PM 37.8519 -78.1481 220° Southwest 445 512 34,000  Level Washington Center
08:34PM 37.7622 -78.2450 221° Southwest 439 505 34,000  Level Washington Center
08:35PM 37.6556 -78.3539 219° Southwest 444 511 34,000  Level Washington Center
08:36PM 37.5594 -78.4500 218° Southwest 444 511 34,000  Level Washington Center
08:37PM 37.4589 -78.5561 220° Southwest 457 526 34,000  Level Washington Center
08:38PM 37.3581 -78.6594 219° Southwest 464 534 34,000  Level Washington Center
08:39PM 37.2553 -78.7622 219° Southwest 475 547 34,000  Level Washington Center
08:40PM 37.1589 -78.8597 219° Southwest 481 554 34,000  Level Washington Center
08:41PM 37.0558 -78.9647 219° Southwest 481 554 34,000  Level Washington Center
08:42PM 36.9547 -79.0694 220° Southwest 481 554 34,000  Level Washington Center
08:43PM 36.8514 -79.1739 219° Southwest 481 554 34,000  Level Washington Center
08:44PM 36.7353 -79.2878 218° Southwest 481 554 34,000  Level Washington Center
08:45PM 36.6342 -79.3892 219° Southwest 481 554 34,000  Level Washington Center
08:47PM 36.4283 -79.5928 219° Southwest 475 547 34,000  Level Atlanta Center
08:48PM 36.3136 -79.7075 219° Southwest 475 547 34,000  Level Atlanta Center
08:49PM 36.2108 -79.8108 219° Southwest 475 547 34,000  Level Atlanta Center
08:50PM 36.1078 -79.9111 218° Southwest 480 552 34,000  Level Atlanta Center
08:51PM 35.9958 -79.9992 212° Southwest 480 552 34,000  Level Atlanta Center
08:52PM 35.8811 -80.0561 202° Southwest 485 558 34,000 420 Level Atlanta Center
08:53PM 35.7539 -80.1211 203° Southwest 497 572 34,900 960 Climbing Atlanta Center
08:54PM 35.6203 -80.1914 203° Southwest 486 559 36,000 540 Climbing Atlanta Center
08:55PM 35.4969 -80.2506 201° Southwest 480 552 36,000  Level Atlanta Center
08:56PM 35.3739 -80.3125 202° Southwest 485 558 36,000  Level Atlanta Center
08:57PM 35.2442 -80.3767 202° Southwest 490 564 36,000  Level Atlanta Center
08:58PM 35.1189 -80.4406 203° Southwest 490 564 36,000  Level Atlanta Center
08:59PM 34.9933 -80.5044 203° Southwest 490 564 36,000  Level Atlanta Center
09:00PM 34.7914 -80.5669 194° South 477 549 36,000  Level Jacksonville Center
09:01PM 34.6564 -80.5983 191° South 477 549 36,000  Level Jacksonville Center
09:02PM 34.5233 -80.6294 191° South 487 560 36,000 -420 Level Jacksonville Center
09:03PM 34.3883 -80.6658 193° South 487 560 35,200 -1,020 Descending Jacksonville Center
09:04PM 34.2561 -80.7269 201° Southwest 504 580 34,000 -1,020 Descending Jacksonville Center
09:05PM 34.1111 -80.7958 201° Southwest 504 580 33,200 -1,020 Descending Jacksonville Center
09:06PM 33.9828 -80.8589 202° Southwest 509 586 32,000 -600 Descending Jacksonville Center
09:07PM 33.8606 -80.9217 203° Southwest 503 579 32,000  Level Jacksonville Center
09:08PM 33.7450 -80.9994 209° Southwest 484 557 32,000  Level Jacksonville Center
09:09PM 33.6589 -81.1061 226° Southwest 465 535 32,000  Level Jacksonville Center
09:10PM 33.5789 -81.2047 226° Southwest 443 510 32,000  Level Jacksonville Center
09:11PM 33.4947 -81.3036 224° Southwest 427 491 32,000  Level Jacksonville Center
09:12PM 33.4122 -81.3994 224° Southwest 422 486 32,000 -480 Level Jacksonville Center
09:13PM 33.3067 -81.4808 213° Southwest 435 501 31,100 -1,020 Descending Jacksonville Center
09:14PM 33.2011 -81.5494 209° Southwest 442 509 30,000 -600 Descending Jacksonville Center
09:15PM 33.0931 -81.6033 203° Southwest 429 494 30,000  Level Jacksonville Center
09:16PM 32.9850 -81.6544 202° Southwest 424 488 30,000  Level Jacksonville Center
09:17PM 32.8769 -81.7028 201° Southwest 424 488 30,000  Level Jacksonville Center
09:18PM 32.7628 -81.7561 201° Southwest 424 488 30,000  Level Jacksonville Center
09:19PM 32.6439 -81.7897 193° South 441 507 30,000 -300 Level Jacksonville Center
09:20PM 32.5336 -81.8083 188° South 441 507 29,400 -1,680 Descending Jacksonville Center
09:21PM 32.4000 -81.8197 184° South 446 513 26,700 -2,580 Descending Jacksonville Center
09:22PM 32.2933 -81.7964 170° South 436 502 24,300 -1,380 Descending Jacksonville Center
09:23PM 32.1697 -81.7561 165° South 429 494 24,000 -180 Descending Jacksonville Center
09:24PM 32.0631 -81.7281 167° South 401 461 24,000  Level Jacksonville Center
09:25PM 31.9708 -81.7000 166° South 393 452 24,000 -780 Level Jacksonville Center
09:26PM 31.8494 -81.6697 168° South 393 452 22,500 -1,500 Descending Jacksonville Center
09:27PM 31.7533 -81.6417 166° South 393 452 21,100 -1,560 Descending Jacksonville Center
09:28PM 31.6361 -81.6092 167° South 393 452 19,400 -1,560 Descending Jacksonville Center
09:29PM 31.5333 -81.5789 166° South 388 447 18,000 -1,320 Descending Jacksonville Center
09:30PM 31.4456 -81.5556 167° South 371 427 16,800 -1,440 Descending Jacksonville Center
09:31PM 31.3428 -81.5281 167° South 357 411 15,200 -1,500 Descending Jacksonville Center
09:32PM 31.2611 -81.5072 168° South 346 398 13,800 -1,500 Descending Jacksonville Center
09:33PM 31.1753 -81.4842 167° South 333 383 12,300 -1,500 Descending Jacksonville Center
09:34PM 31.0872 -81.4589 166° South 322 371 10,800 -1,200 Descending Jacksonville Center
09:35PM 30.9994 -81.4506 175° South 322 371 10,000 -420 Descending Jacksonville Center
09:36PM 30.9119 -81.4592 185° South 317 365 10,000 -600 Level Jacksonville Center
09:37PM 30.8286 -81.4678 185° South 311 358 8,900 -1,320 Descending Jacksonville Center
09:38PM 30.7492 -81.4736 184° South 300 345 7,400 -1,560 Descending Jacksonville Center
09:39PM 30.6933 -81.5228 217° Southwest 264 304 5,800 -1,560 Descending Jacksonville Center
09:40PM 30.6483 -81.5936 234° Southwest 261 300 4,300 -900 Descending Jacksonville Center
09:41PM 30.6050 -81.6642 235° Southwest 266 306 4,000 -420 Descending Jacksonville Center
09:43PM 30.5561 -81.7708 242° Southwest 250 288 3,300 -600 Descending Jacksonville Center
09:44PM 30.5378 -81.8314 251° West 208 239 2,700 -780 Descending Jacksonville Center
09:45PM 30.4856 -81.8272 176° South 179 206 1,900 -600 Descending Jacksonville Center
09:46PM 30.4664 -81.7889 120° Southeast 141 162 1,600 -600 Descending Jacksonville Center
09:47PM 30.4806 -81.7428 70° East 154 177 800 -840 Descending Jacksonville Center